• Join FlightAware (Why Join?)
  • Login
  • US Flag 
07:50AM EST


 

Airport Tracker/Info


-or-


 

Live Flight TrackerFlight Track Log ✈ KAP528 ✈ 07-May-2013 ✈ KBOS - KALB

Flight Track Log - Related Links

Times and Time Zones

All times are in EDT time to prevent confusion due to time zone crossing. See the KAP528 flight status page for this flight to view local times or setup timezone preferences in your user account.

Time Position Orientation Groundspeed Altitude Reporting Facility
EDT Latitude Longitude Course Direction KTS MPH feet Rate Location/Type
09:23AM 42.3667 -71.0167 246° West 139 160 500  Level KA90
09:24AM 42.3500 -71.0667 246° West 124 143 2,100 1,164 Climbing KA90
09:25AM 42.3500 -71.1167 270° West 134 154 3,100 908 Climbing KA90
09:26AM 42.3333 -71.1667 246° West 129 148 3,900 700 Climbing KA90
09:27AM 42.3333 -71.2167 270° West 138 159 4,500 706 Climbing KA90
09:28AM 42.3500 -71.2667 294° West 138 159 5,300 769 Climbing KA90
09:29AM 42.3500 -71.3167 270° West 139 160 6,000 600 Climbing KA90
09:30AM 42.3667 -71.3667 294° West 139 160 6,500 346 Climbing KA90
09:31AM 42.3728 -71.4086 281° West 154 177 6,600  Climbing Boston Center
09:32AM 42.3794 -71.4647 279° West 161 185 6,500 -50 Descending Boston Center
09:33AM 42.3925 -71.5350 284° West 172 198 6,500  Level Boston Center
09:34AM 42.4014 -71.5911 282° West 172 198 6,500  Level Boston Center
09:35AM 42.4144 -71.6611 284° West 178 205 6,500  Level Boston Center
09:36AM 42.4253 -71.7200 284° West 178 205 6,500  Level Boston Center
09:37AM 42.4361 -71.7903 282° West 178 205 6,500  Level Boston Center
09:38AM 42.4467 -71.8492 284° West 183 211 6,500  Level Boston Center
09:39AM 42.4575 -71.9194 282° West 178 205 6,500  Level Boston Center
09:40AM 42.4683 -71.9758 285° West 178 205 6,500  Level Boston Center
09:41AM 42.4789 -72.0489 281° West 183 211 6,500  Level Boston Center
09:42AM 42.4894 -72.1078 284° West 183 211 6,500  Level Boston Center
09:43AM 42.5000 -72.1783 281° West 183 211 6,500  Level Boston Center
09:44AM 42.5106 -72.2400 283° West 183 211 6,500  Level Boston Center
09:45AM 42.5233 -72.3106 284° West 183 211 6,500  Level Boston Center
09:46AM 42.5358 -72.3894 282° West 183 211 6,500  Level Boston Center
09:47AM 42.5442 -72.4569 280° West 183 211 6,500  Level Boston Center
09:48AM 42.5525 -72.5217 280° West 183 211 6,500  Level Boston Center
09:49AM 42.5650 -72.5867 285° West 183 211 6,500  Level Boston Center
09:50AM 42.5733 -72.6403 282° West 179 206 6,500  Level Boston Center
09:51AM 42.5814 -72.7050 280° West 179 206 6,500  Level Boston Center
09:52AM 42.5917 -72.7728 282° West 180 207 6,500  Level Boston Center
09:53AM 42.6039 -72.8406 284° West 182 209 6,500  Level Boston Center
09:54AM 42.6119 -72.9083 279° West 181 208 6,500  Level Boston Center
09:55AM 42.6222 -72.9761 282° West 183 211 6,500  Level Boston Center
09:56AM 42.6342 -73.0439 283° West 184 212 6,500  Level Boston Center
09:57AM 42.6422 -73.1119 279° West 185 213 6,500 -197 Level Boston Center
09:58AM 42.6564 -73.1825 285° West 195 224 6,100 -419 Descending Boston Center
09:59AM 42.6683 -73.2647 281° West 186 214 5,600 -520 Descending Boston Center
10:00AM 42.6822 -73.3411 284° West 198 228 5,000 -504 Descending Boston Center
10:01AM 42.7028 -73.4064 293° West 192 221 4,600 -397 Descending Boston Center
10:02AM 42.7189 -73.4631 291° West 196 226 4,200 -446 Descending Boston Center
10:03AM 42.7411 -73.5283 295° West 183 211 3,700 -500 Descending Boston Center
10:04AM 42.7511 -73.5881 283° West 178 205 3,200 -639 Descending Boston Center
10:05AM 42.7544 -73.6589 274° West 172 198 2,400 -791 Descending Boston Center
10:06AM 42.7517 -73.7267 267° West 155 178 1,500 -812 Descending Boston Center
10:07AM 42.7489 -73.7747 266° West 110 127 600 -818 Descending Boston Center
10:09AM 42.7333 -73.8000 270° West  Level FlightAware Approximate
10:16AM 42.7491 -73.8020 270° West  Level Estimated
10:17AM 42.7491 -73.8020 270° West  Level Estimated
10:18AM 42.7491 -73.8020 270° West  Level Estimated
10:19AM 42.7491 -73.8020 270° West  Level Estimated